createdAt,value
2018-09-14T00:03:37.477Z,7.40
2018-09-14T00:07:31.662Z,6.10
2018-09-14T00:11:25.670Z,8.53
2018-09-14T00:15:19.609Z,7.00
2018-09-14T00:19:13.807Z,8.30
2018-09-14T00:23:07.831Z,5.83
2018-09-14T00:27:01.884Z,8.90
2018-09-14T00:30:55.777Z,6.23
2018-09-14T00:34:49.749Z,9.73
2018-09-14T00:38:43.728Z,4.30
2018-09-14T00:42:37.689Z,6.97
2018-09-14T00:46:31.691Z,7.53
2018-09-14T00:50:25.676Z,7.73
2018-09-14T00:54:19.617Z,10.33
2018-09-14T00:58:13.577Z,11.40
2018-09-14T01:02:07.563Z,8.67
2018-09-14T01:06:01.528Z,6.07
2018-09-14T01:09:55.460Z,7.67
2018-09-14T01:13:49.456Z,6.63
2018-09-14T01:17:43.847Z,3.80
2018-09-14T01:21:37.902Z,5.83
2018-09-14T01:25:31.866Z,6.53
2018-09-14T01:29:25.903Z,6.93
2018-09-14T01:33:19.849Z,6.93
2018-09-14T01:37:13.871Z,7.23
2018-09-14T01:41:08.222Z,7.70
2018-09-14T01:45:02.205Z,7.53
2018-09-14T01:48:56.515Z,9.13
2018-09-14T01:52:50.471Z,7.13
2018-09-14T01:56:44.510Z,4.50
2018-09-14T02:00:38.490Z,5.57
2018-09-14T02:04:32.372Z,7.13
2018-09-14T02:08:26.382Z,8.50
2018-09-14T02:12:20.363Z,9.67
2018-09-14T02:16:14.335Z,7.27
2018-09-14T02:20:08.275Z,7.43
2018-09-14T02:24:02.213Z,7.30
2018-09-14T02:27:56.259Z,5.57
2018-09-14T02:31:50.195Z,8.67
2018-09-14T02:35:44.279Z,6.60
2018-09-14T02:39:39.050Z,7.80
2018-09-14T02:43:32.986Z,8.40
2018-09-14T02:47:26.973Z,9.27
2018-09-14T02:51:20.917Z,7.13
2018-09-14T02:55:15.010Z,8.37
2018-09-14T02:59:08.957Z,6.53
2018-09-14T03:03:02.898Z,7.47
2018-09-14T03:06:56.894Z,8.27
2018-09-14T03:10:50.946Z,12.07
2018-09-14T03:14:44.868Z,10.17
2018-09-14T03:18:38.804Z,12.17
2018-09-14T03:22:32.735Z,12.20
2018-09-14T03:26:26.718Z,14.13
2018-09-14T03:30:20.651Z,9.77
2018-09-14T03:34:14.667Z,10.77
2018-09-14T03:38:08.583Z,7.37
2018-09-14T03:42:02.841Z,9.23
2018-09-14T03:45:56.793Z,11.07
2018-09-14T03:49:51.019Z,7.57
2018-09-14T03:53:44.959Z,6.77
2018-09-14T03:57:39.015Z,11.67
2018-09-14T04:01:33.009Z,8.90
2018-09-14T04:05:26.915Z,7.97
2018-09-14T04:09:20.874Z,11.07
2018-09-14T04:13:14.865Z,11.10
2018-09-14T04:17:08.866Z,9.93
2018-09-14T04:21:02.825Z,10.60
2018-09-14T04:24:56.852Z,12.20
2018-09-14T04:28:50.776Z,12.50
2018-09-14T04:32:44.921Z,9.33
2018-09-14T04:36:38.846Z,12.03
2018-09-14T04:40:32.766Z,8.23
2018-09-14T04:44:26.847Z,11.57
2018-09-14T04:48:20.889Z,10.70
2018-09-14T04:52:14.766Z,11.37
2018-09-14T04:56:09.406Z,12.40
2018-09-14T05:00:03.387Z,8.85
2018-09-14T05:03:57.374Z,10.60
2018-09-14T05:07:51.331Z,7.83
2018-09-14T05:11:45.316Z,13.60
2018-09-14T05:15:39.359Z,11.67
2018-09-14T05:19:33.292Z,10.73
2018-09-14T05:23:27.642Z,11.33
2018-09-14T05:27:21.599Z,10.03
2018-09-14T05:31:15.506Z,12.33
2018-09-14T05:35:09.646Z,8.60
2018-09-14T05:39:04.471Z,29.77
2018-09-14T05:42:58.413Z,12.13
2018-09-14T05:46:52.281Z,9.17
2018-09-14T05:50:46.264Z,7.43
2018-09-14T05:54:40.293Z,12.97
2018-09-14T05:58:34.397Z,10.63
2018-09-14T06:02:29.244Z,9.37
2018-09-14T06:06:23.279Z,12.33
2018-09-14T06:10:17.571Z,12.40
2018-09-14T06:14:11.604Z,17.80
2018-09-14T06:18:05.596Z,14.47
2018-09-14T06:21:59.602Z,12.67
2018-09-14T06:25:53.655Z,20.17
2018-09-14T06:29:47.859Z,23.10
2018-09-14T06:33:41.886Z,19.23
2018-09-14T06:37:35.871Z,19.57
2018-09-14T06:41:29.906Z,18.73
2018-09-14T06:45:23.992Z,20.10
2018-09-14T06:49:17.898Z,19.07
2018-09-14T06:53:11.903Z,21.20
2018-09-14T06:57:05.831Z,22.13
2018-09-14T07:01:00.244Z,21.03
2018-09-14T07:04:54.296Z,20.90
2018-09-14T07:08:48.323Z,22.50
2018-09-14T07:12:42.250Z,24.87
2018-09-14T07:16:36.209Z,28.03
2018-09-14T07:20:30.266Z,32.53
2018-09-14T07:24:24.940Z,33.13
2018-09-14T07:28:18.953Z,38.20
2018-09-14T07:32:13.543Z,40.75
2018-09-14T07:36:07.483Z,43.10
2018-09-14T07:40:01.429Z,44.47
2018-09-14T07:43:56.404Z,44.10
2018-09-14T07:47:50.931Z,43.83
2018-09-14T07:51:44.859Z,50.37
2018-09-14T07:55:39.724Z,42.93
2018-09-14T07:59:34.097Z,46.17
2018-09-14T08:03:28.156Z,47.73
2018-09-14T08:07:22.144Z,44.13
2018-09-14T08:11:16.342Z,39.93
2018-09-14T08:15:10.282Z,43.40
2018-09-14T08:19:04.489Z,38.70
2018-09-14T08:22:58.936Z,39.60
2018-09-14T08:26:53.269Z,38.53
2018-09-14T08:30:47.447Z,36.40
2018-09-14T08:34:41.561Z,31.47
2018-09-14T08:38:35.679Z,39.47
2018-09-14T08:42:29.634Z,32.33
2018-09-14T08:46:23.686Z,31.93
2018-09-14T08:50:17.812Z,36.43
2018-09-14T08:54:11.844Z,32.30
2018-09-14T08:58:06.193Z,31.15
2018-09-14T09:02:00.395Z,27.20
2018-09-14T09:05:54.724Z,30.83
2018-09-14T09:09:49.079Z,31.00
2018-09-14T09:13:43.112Z,25.63
2018-09-14T09:17:37.076Z,28.20
2018-09-14T09:21:31.031Z,26.40
2018-09-14T09:25:25.017Z,26.83
2018-09-14T09:29:18.950Z,27.10
2018-09-14T09:33:12.977Z,31.90
2018-09-14T09:37:07.007Z,27.63
2018-09-14T09:41:01.981Z,27.80
2018-09-14T09:44:55.906Z,25.00
2018-09-14T09:48:50.060Z,22.07
2018-09-14T09:52:44.023Z,25.77
2018-09-14T09:56:38.953Z,23.17
2018-09-14T10:00:38.363Z,22.30
2018-09-14T10:04:38.470Z,18.43
2018-09-14T10:08:32.548Z,23.83
2018-09-14T10:12:26.704Z,21.60
2018-09-14T10:16:20.796Z,24.30
2018-09-14T10:20:14.867Z,20.30
2018-09-14T10:24:08.831Z,19.03
2018-09-14T10:28:02.783Z,20.70
2018-09-14T10:31:56.779Z,20.13
2018-09-14T10:35:50.752Z,17.97
2018-09-14T10:39:44.786Z,15.63
2018-09-14T10:43:38.894Z,19.83
2018-09-14T10:47:32.915Z,10.13
2018-09-14T10:51:26.991Z,11.17
2018-09-14T10:55:21.388Z,10.70
2018-09-14T10:59:15.311Z,11.15
2018-09-14T11:03:09.313Z,9.93
2018-09-14T11:07:03.524Z,10.47
2018-09-14T11:10:57.413Z,4.00
2018-09-14T11:14:51.434Z,6.77
2018-09-14T11:18:45.554Z,4.80
2018-09-14T11:22:39.739Z,8.38
2018-09-14T11:26:33.771Z,5.07
2018-09-14T11:30:27.742Z,10.47
2018-09-14T11:34:21.681Z,6.80
2018-09-14T11:38:15.738Z,7.45
2018-09-14T11:42:09.839Z,7.43
2018-09-14T11:46:03.868Z,7.07
2018-09-14T11:49:57.784Z,11.67
2018-09-14T11:53:51.694Z,11.30
2018-09-14T11:57:45.723Z,10.13
2018-09-14T12:01:40.191Z,7.80
2018-09-14T12:05:34.277Z,14.80
2018-09-14T12:09:28.184Z,8.00
2018-09-14T12:13:22.200Z,8.90
2018-09-14T12:17:16.307Z,10.33
2018-09-14T12:21:10.428Z,9.00
2018-09-14T12:25:04.395Z,10.30
2018-09-14T12:28:58.389Z,6.77
2018-09-14T12:32:52.441Z,7.97
2018-09-14T12:36:46.402Z,8.77
2018-09-14T12:40:40.506Z,10.37
2018-09-14T12:44:35.316Z,8.47
2018-09-14T12:48:29.315Z,7.23
2018-09-14T12:52:23.867Z,6.37
2018-09-14T12:56:17.945Z,6.00
2018-09-14T13:00:11.917Z,5.30
2018-09-14T13:04:06.095Z,6.40
2018-09-14T13:08:00.468Z,6.57
2018-09-14T13:11:54.424Z,9.37
2018-09-14T13:15:48.467Z,8.53
2018-09-14T13:19:42.448Z,9.37
2018-09-14T13:23:36.464Z,8.63
2018-09-14T13:27:30.461Z,6.78
2018-09-14T13:31:24.474Z,22.48
2018-09-14T13:35:18.859Z,8.07
2018-09-14T13:39:13.301Z,7.37
2018-09-14T13:43:07.369Z,6.60
2018-09-14T13:47:03.092Z,8.60
2018-09-14T13:50:59.182Z,9.77
2018-09-14T13:54:53.301Z,7.67
2018-09-14T13:58:47.277Z,9.87
2018-09-14T14:02:41.521Z,7.47
2018-09-14T14:06:35.507Z,7.07
2018-09-14T14:10:29.649Z,7.23
2018-09-14T14:14:23.590Z,6.37
2018-09-14T14:18:17.738Z,6.80
2018-09-14T14:22:12.033Z,6.77
2018-09-14T14:26:07.424Z,4.40
2018-09-14T14:30:01.392Z,7.23
2018-09-14T14:33:55.328Z,6.10
2018-09-14T14:37:49.269Z,4.30
2018-09-14T14:41:43.308Z,5.57
2018-09-14T14:45:37.868Z,10.90
2018-09-14T14:49:31.814Z,6.30
2018-09-14T14:53:25.936Z,10.87
2018-09-14T14:57:19.906Z,10.20
2018-09-14T15:01:13.848Z,8.70
2018-09-14T15:05:07.895Z,7.83
2018-09-14T15:09:01.976Z,9.03
2018-09-14T15:12:55.940Z,6.07
2018-09-14T15:16:49.932Z,4.47
2018-09-14T15:20:43.959Z,14.80
2018-09-14T15:24:37.859Z,6.47
2018-09-14T15:28:31.774Z,9.08
2018-09-14T15:32:25.744Z,13.07
2018-09-14T15:36:19.745Z,11.57
2018-09-14T15:40:13.771Z,9.17
2018-09-14T15:44:07.854Z,5.92
2018-09-14T15:48:01.826Z,6.28
2018-09-14T15:51:55.854Z,8.13
2018-09-14T15:55:49.803Z,9.90
2018-09-14T15:59:43.789Z,8.13
2018-09-14T16:03:37.952Z,7.47
2018-09-14T16:07:31.927Z,6.17
2018-09-14T16:11:25.918Z,6.10
2018-09-14T16:15:19.981Z,8.80
2018-09-14T16:19:14.034Z,7.77
2018-09-14T16:23:08.120Z,11.13
2018-09-14T16:27:02.835Z,8.17
2018-09-14T16:30:56.820Z,9.00
2018-09-14T16:34:50.765Z,9.07
2018-09-14T16:38:44.743Z,6.50
2018-09-14T16:42:38.944Z,8.38
2018-09-14T16:46:32.922Z,9.13
2018-09-14T16:50:26.951Z,5.33
2018-09-14T16:54:20.918Z,9.43
2018-09-14T16:58:14.951Z,7.20
2018-09-14T17:02:09.014Z,6.37
2018-09-14T17:06:02.962Z,5.33
2018-09-14T17:09:57.005Z,5.30
2018-09-14T17:13:51.020Z,7.07
2018-09-14T17:17:45.011Z,6.27
2018-09-14T17:21:38.974Z,7.00
2018-09-14T17:25:32.971Z,3.42
2018-09-14T17:29:26.868Z,7.53
2018-09-14T17:33:20.847Z,6.90
2018-09-14T17:37:14.792Z,5.43
2018-09-14T17:41:08.860Z,6.80
2018-09-14T17:45:02.808Z,8.63
2018-09-14T17:48:56.844Z,7.83
2018-09-14T17:52:50.768Z,5.23
2018-09-14T17:56:44.807Z,7.73
2018-09-14T18:00:38.785Z,4.77
2018-09-14T18:04:33.231Z,7.10
2018-09-14T18:08:27.588Z,5.53
2018-09-14T18:12:21.579Z,6.57
2018-09-14T18:16:15.534Z,3.67
2018-09-14T18:20:09.454Z,4.27
2018-09-14T18:24:03.531Z,4.83
2018-09-14T18:27:57.508Z,4.90
2018-09-14T18:31:51.436Z,6.30
2018-09-14T18:35:45.434Z,5.45
2018-09-14T18:39:39.321Z,3.97
2018-09-14T18:43:33.218Z,6.53
2018-09-14T18:47:27.178Z,3.73
2018-09-14T18:51:21.304Z,6.60
2018-09-14T18:55:15.264Z,4.20
2018-09-14T18:59:09.364Z,4.67
2018-09-14T19:03:03.339Z,6.10
2018-09-14T19:06:57.334Z,17.60
2018-09-14T19:10:51.368Z,6.97
2018-09-14T19:14:45.325Z,6.03
2018-09-14T19:18:39.659Z,7.10
2018-09-14T19:22:33.702Z,5.97
2018-09-14T19:26:27.692Z,7.43
2018-09-14T19:30:21.642Z,7.67
2018-09-14T19:34:15.695Z,12.57
2018-09-14T19:38:10.179Z,6.07
2018-09-14T19:42:04.157Z,6.37
2018-09-14T19:45:58.196Z,6.47
2018-09-14T19:49:52.297Z,8.10
2018-09-14T19:53:46.286Z,10.37
2018-09-14T19:57:40.390Z,7.00
2018-09-14T20:01:34.438Z,6.78
2018-09-14T20:05:28.508Z,9.30
2018-09-14T20:09:22.879Z,10.58
2018-09-14T20:13:16.854Z,7.83
2018-09-14T20:17:11.051Z,7.80
2018-09-14T20:21:05.084Z,6.40
2018-09-14T20:24:59.091Z,6.60
2018-09-14T20:28:53.220Z,7.97
2018-09-14T20:32:47.307Z,7.92
2018-09-14T20:36:41.303Z,7.30
2018-09-14T20:40:36.991Z,8.73
2018-09-14T20:44:30.996Z,7.27
2018-09-14T20:48:25.084Z,5.70
2018-09-14T20:52:19.716Z,10.30
2018-09-14T20:56:15.092Z,6.33
2018-09-14T21:00:09.255Z,6.00
2018-09-14T21:04:03.327Z,6.27
2018-09-14T21:07:57.478Z,7.33
2018-09-14T21:11:51.690Z,7.03
2018-09-14T21:15:45.772Z,9.43
2018-09-14T21:19:39.758Z,7.10
2018-09-14T21:23:34.284Z,8.47
2018-09-14T21:27:28.347Z,9.57
2018-09-14T21:31:22.373Z,12.10
2018-09-14T21:35:16.339Z,7.90
2018-09-14T21:39:11.539Z,7.60
2018-09-14T21:43:05.541Z,8.93
2018-09-14T21:46:59.684Z,10.27
2018-09-14T21:50:53.698Z,10.78
2018-09-14T21:54:47.680Z,10.40
2018-09-14T21:58:41.774Z,6.97
2018-09-14T22:02:35.828Z,6.30
2018-09-14T22:06:30.306Z,7.93
2018-09-14T22:10:24.967Z,7.33
2018-09-14T22:14:19.076Z,8.60
2018-09-14T22:18:13.121Z,5.73
2018-09-14T22:22:07.242Z,9.73
2018-09-14T22:26:01.049Z,5.90
2018-09-14T22:29:55.196Z,7.17
2018-09-14T22:33:49.207Z,7.50
2018-09-14T22:37:43.661Z,5.00
2018-09-14T22:41:38.020Z,4.53
2018-09-14T22:45:31.982Z,5.27
2018-09-14T22:49:26.808Z,5.87
2018-09-14T22:53:20.950Z,4.00
2018-09-14T22:57:14.869Z,6.33
2018-09-14T23:01:14.119Z,6.70
2018-09-14T23:05:08.050Z,4.13
2018-09-14T23:09:01.996Z,8.27
2018-09-14T23:12:56.134Z,7.83
2018-09-14T23:16:50.252Z,8.13
2018-09-14T23:20:44.540Z,4.93
2018-09-14T23:24:38.439Z,6.28
2018-09-14T23:28:32.381Z,5.50
2018-09-14T23:32:26.358Z,5.93
2018-09-14T23:36:20.302Z,5.00
2018-09-14T23:40:14.249Z,5.43
2018-09-14T23:44:08.318Z,4.53
2018-09-14T23:48:02.263Z,4.73
2018-09-14T23:51:56.198Z,5.03
2018-09-14T23:55:50.134Z,5.00
2018-09-14T23:59:44.102Z,4.40
